Time;durP1;ratioP1;P1;durP2;ratioP2;P2;SDS_P1;SDS_P2;PMS_P1;PMS_P2;Temp;Humidity;BMP_temperature;BMP_pressure;BME280_temperature;BME280_humidity;BME280_pressure;Samples;Min_cycle;Max_cycle;Signal;HPM_P1;HPM_P2
2024/01/22 00:00:40;;;;;;;4.15;3.75;;;-0.70;99.90;;;;;;5058004;28;20221;-75
2024/01/22 00:03:09;;;;;;;4.70;4.40;;;-0.70;99.90;;;;;;5060920;28;20285;-75
2024/01/22 00:05:37;;;;;;;4.90;4.43;;;-0.70;99.90;;;;;;5058714;28;20912;-75
2024/01/22 00:08:04;;;;;;;4.78;4.47;;;-0.80;99.90;;;;;;5061860;28;20203;-75
2024/01/22 00:10:31;;;;;;;4.97;4.68;;;-0.80;99.90;;;;;;5057791;28;20222;-76
2024/01/22 00:12:58;;;;;;;4.32;4.03;;;-0.80;99.90;;;;;;5060954;28;20754;-75
2024/01/22 00:15:27;;;;;;;4.53;4.22;;;-0.80;99.90;;;;;;5059731;28;20226;-75
2024/01/22 00:17:54;;;;;;;4.72;4.43;;;-0.80;99.90;;;;;;5060975;28;20216;-75
2024/01/22 00:20:22;;;;;;;4.88;4.50;;;-0.80;99.90;;;;;;5056440;28;20215;-76
2024/01/22 00:22:50;;;;;;;4.43;4.13;;;-0.80;99.90;;;;;;5058928;28;20199;-76
2024/01/22 00:25:17;;;;;;;3.92;3.72;;;-0.80;99.90;;;;;;5058488;28;20240;-76
2024/01/22 00:27:44;;;;;;;4.07;3.88;;;-0.80;99.90;;;;;;5060583;28;20222;-76
2024/01/22 00:30:11;;;;;;;4.50;4.20;;;-0.80;99.90;;;;;;5058701;28;20218;-76
2024/01/22 00:32:40;;;;;;;4.20;4.00;;;-0.80;99.90;;;;;;5059105;28;20279;-76
2024/01/22 00:35:08;;;;;;;3.67;3.47;;;-0.80;99.90;;;;;;5057792;28;20230;-76
2024/01/22 00:37:35;;;;;;;4.40;4.13;;;-0.80;99.90;;;;;;5061105;28;20310;-74
2024/01/22 00:40:02;;;;;;;4.38;4.18;;;-0.80;99.90;;;;;;5057075;28;20226;-76
2024/01/22 00:42:29;;;;;;;4.40;4.20;;;-0.80;99.90;;;;;;5060729;28;20217;-76
2024/01/22 00:44:56;;;;;;;4.47;4.18;;;-0.80;99.90;;;;;;5060158;28;20967;-76
2024/01/22 00:47:23;;;;;;;4.28;3.97;;;-0.80;99.90;;;;;;5057700;28;20219;-76
2024/01/22 00:49:52;;;;;;;4.70;4.40;;;-0.80;99.90;;;;;;5058323;28;20210;-75
2024/01/22 00:52:19;;;;;;;4.32;4.03;;;-0.80;99.90;;;;;;5053857;28;20225;-76
2024/01/22 00:54:46;;;;;;;4.20;4.00;;;-0.80;99.90;;;;;;5055173;28;20225;-75
2024/01/22 00:57:13;;;;;;;4.60;4.30;;;-0.80;99.90;;;;;;5057798;28;20869;-76
2024/01/22 00:59:40;;;;;;;4.43;4.13;;;-0.80;99.90;;;;;;5054096;28;20262;-76
2024/01/22 01:02:08;;;;;;;4.20;3.90;;;-0.80;99.90;;;;;;5058192;28;20218;-75
2024/01/22 01:04:36;;;;;;;4.32;4.13;;;-0.90;99.90;;;;;;5058524;28;20345;-75
2024/01/22 01:07:05;;;;;;;4.80;4.50;;;-0.80;99.90;;;;;;5059507;28;20708;-76
2024/01/22 01:09:32;;;;;;;4.55;4.30;;;-0.90;99.90;;;;;;5057633;28;20221;-75
2024/01/22 01:11:59;;;;;;;4.40;4.10;;;-0.90;99.90;;;;;;5059962;28;20198;-76
2024/01/22 01:14:26;;;;;;;4.65;4.35;;;-0.90;99.90;;;;;;5061333;28;20218;-76
2024/01/22 01:16:53;;;;;;;4.20;4.00;;;-0.90;99.90;;;;;;5058561;28;20222;-76
2024/01/22 01:19:20;;;;;;;4.40;4.10;;;-0.90;99.90;;;;;;5058254;28;20221;-75
2024/01/22 01:21:47;;;;;;;4.88;4.57;;;-0.90;99.90;;;;;;5056787;28;20853;-75
2024/01/22 01:24:16;;;;;;;4.80;4.50;;;-0.90;99.90;;;;;;5060290;28;20225;-75
2024/01/22 01:26:43;;;;;;;4.82;4.53;;;-0.90;99.90;;;;;;5058057;28;20226;-75
2024/01/22 01:29:10;;;;;;;4.90;4.60;;;-0.90;99.90;;;;;;5056796;28;20217;-76
2024/01/22 01:31:37;;;;;;;4.28;4.05;;;-1.00;99.90;;;;;;5057588;28;20736;-74
2024/01/22 01:34:05;;;;;;;4.50;4.20;;;-1.00;99.90;;;;;;5058592;28;21005;-75
2024/01/22 01:36:32;;;;;;;4.63;4.32;;;-1.00;99.90;;;;;;5056636;28;20623;-76
2024/01/22 01:38:59;;;;;;;4.45;4.15;;;-1.10;99.90;;;;;;5058372;28;20222;-75
2024/01/22 01:41:27;;;;;;;4.47;4.18;;;-1.10;99.90;;;;;;5053994;28;20202;-76
2024/01/22 01:43:54;;;;;;;4.22;4.03;;;-1.00;99.90;;;;;;5059284;28;20227;-76
2024/01/22 01:46:21;;;;;;;4.38;4.18;;;-1.00;99.90;;;;;;5060758;28;20214;-76
2024/01/22 01:48:50;;;;;;;4.65;4.35;;;-1.00;99.90;;;;;;5056050;28;20662;-74
2024/01/22 01:51:17;;;;;;;4.28;4.07;;;-1.00;99.90;;;;;;5057297;28;20202;-75
2024/01/22 01:53:46;;;;;;;4.80;4.50;;;-1.10;99.90;;;;;;5061016;28;20206;-75
2024/01/22 01:56:13;;;;;;;4.70;4.40;;;-1.10;99.90;;;;;;5058519;28;20252;-76
2024/01/22 01:58:42;;;;;;;4.38;4.07;;;-1.10;99.90;;;;;;5058497;28;20744;-75
2024/01/22 02:01:09;;;;;;;4.70;4.40;;;-1.10;99.90;;;;;;5056023;28;20218;-76
2024/01/22 02:03:37;;;;;;;4.18;3.88;;;-1.10;99.90;;;;;;5054150;28;20203;-75
2024/01/22 02:06:04;;;;;;;4.30;4.10;;;-1.10;99.90;;;;;;5057551;28;20209;-75
2024/01/22 02:08:31;;;;;;;4.70;4.40;;;-1.20;99.90;;;;;;5059231;28;20202;-76
2024/01/22 02:10:58;;;;;;;4.93;4.63;;;-1.20;99.90;;;;;;5053349;28;20241;-76
2024/01/22 02:13:28;;;;;;;5.30;5.00;;;-1.20;99.90;;;;;;5058564;28;20214;-75
2024/01/22 02:15:56;;;;;;;4.50;4.25;;;-1.20;99.90;;;;;;5036143;28;20222;-76
2024/01/22 02:18:23;;;;;;;4.45;4.15;;;-1.20;99.90;;;;;;5038333;28;20202;-75
2024/01/22 02:20:51;;;;;;;4.70;4.40;;;-1.30;99.90;;;;;;5035695;28;20206;-77
2024/01/22 02:23:19;;;;;;;4.40;4.10;;;-1.30;99.90;;;;;;5038572;28;20222;-75
2024/01/22 02:25:46;;;;;;;4.18;3.90;;;-1.20;99.90;;;;;;5036151;28;20215;-74
2024/01/22 02:28:13;;;;;;;4.72;4.43;;;-1.30;99.90;;;;;;5042843;28;20198;-76
2024/01/22 02:30:40;;;;;;;4.35;4.07;;;-1.30;99.90;;;;;;5035234;28;20837;-76
2024/01/22 02:33:07;;;;;;;4.70;4.40;;;-1.30;99.90;;;;;;5037989;28;20194;-75
2024/01/22 02:35:34;;;;;;;4.07;3.78;;;-1.30;99.90;;;;;;5035679;28;20298;-75
2024/01/22 02:38:02;;;;;;;4.40;4.20;;;-1.30;99.90;;;;;;5036802;28;20191;-75
2024/01/22 02:40:30;;;;;;;3.85;3.65;;;-1.30;99.90;;;;;;5035486;28;20223;-75
2024/01/22 02:42:57;;;;;;;4.40;4.10;;;-1.30;99.90;;;;;;5037908;28;20210;-76
2024/01/22 02:45:24;;;;;;;4.40;4.10;;;-1.30;99.90;;;;;;5035931;28;20215;-75
2024/01/22 02:47:51;;;;;;;4.10;3.90;;;-1.30;99.90;;;;;;5039579;28;20925;-75
2024/01/22 02:50:18;;;;;;;4.28;4.00;;;-1.30;99.90;;;;;;5037203;28;20222;-76
2024/01/22 02:52:45;;;;;;;4.18;3.97;;;-1.30;99.90;;;;;;5036031;28;20199;-75
2024/01/22 02:55:12;;;;;;;4.03;3.83;;;-1.30;99.90;;;;;;5038866;28;20875;-75
2024/01/22 02:57:41;;;;;;;4.60;4.32;;;-1.30;99.90;;;;;;5035849;28;20915;-75
2024/01/22 03:00:09;;;;;;;4.75;4.45;;;-1.40;99.90;;;;;;5034369;28;20227;-74
2024/01/22 03:02:36;;;;;;;4.40;4.20;;;-1.40;99.90;;;;;;5038146;28;20627;-75
2024/01/22 03:05:03;;;;;;;4.47;4.20;;;-1.40;99.90;;;;;;5032784;28;20254;-74
2024/01/22 03:07:30;;;;;;;4.03;3.83;;;-1.40;99.90;;;;;;5037245;28;20225;-78
2024/01/22 03:09:57;;;;;;;4.60;4.40;;;-1.40;99.90;;;;;;5035145;28;20226;-75
2024/01/22 03:12:24;;;;;;;4.38;4.07;;;-1.40;99.90;;;;;;5037425;28;20215;-74
2024/01/22 03:14:52;;;;;;;4.53;4.30;;;-1.40;99.90;;;;;;5038303;28;20231;-75
2024/01/22 03:17:19;;;;;;;4.53;4.22;;;-1.40;99.90;;;;;;5036067;28;20222;-75
2024/01/22 03:19:46;;;;;;;4.75;4.45;;;-1.40;99.90;;;;;;5037047;28;20215;-77
2024/01/22 03:22:14;;;;;;;4.05;3.85;;;-1.40;99.90;;;;;;5036457;28;20226;-76
2024/01/22 03:24:45;;;;;;;5.25;4.90;;;-1.40;99.90;;;;;;5036075;28;20244;-75
2024/01/22 03:27:12;;;;;;;4.50;4.20;;;-1.50;99.90;;;;;;5033928;28;20313;-75
2024/01/22 03:29:40;;;;;;;4.55;4.25;;;-1.50;99.90;;;;;;5036913;28;20725;-76
2024/01/22 03:32:08;;;;;;;4.20;4.00;;;-1.50;99.90;;;;;;5034087;28;20947;-76
2024/01/22 03:34:35;;;;;;;4.53;4.28;;;-1.60;99.90;;;;;;5038111;28;20222;-75
2024/01/22 03:37:02;;;;;;;4.72;4.43;;;-1.60;99.90;;;;;;5035556;28;20216;-75
2024/01/22 03:39:30;;;;;;;4.28;4.07;;;-1.70;99.90;;;;;;5043436;28;20219;-75
2024/01/22 03:41:57;;;;;;;4.75;4.45;;;-1.70;99.90;;;;;;5044316;28;20684;-76
2024/01/22 03:44:24;;;;;;;5.13;4.82;;;-1.80;99.90;;;;;;5040453;28;20222;-75
2024/01/22 03:46:51;;;;;;;4.50;4.30;;;-1.80;99.90;;;;;;5037141;28;20234;-76
2024/01/22 03:49:19;;;;;;;4.45;4.25;;;-1.80;99.90;;;;;;5039819;28;20227;-76
2024/01/22 03:51:46;;;;;;;4.95;4.65;;;-1.80;99.90;;;;;;5039162;28;20725;-75
2024/01/22 03:54:13;;;;;;;4.68;4.38;;;-1.80;99.90;;;;;;5038400;28;20229;-75
2024/01/22 03:56:41;;;;;;;4.63;4.38;;;-1.80;99.90;;;;;;5042237;28;20225;-75
2024/01/22 03:59:08;;;;;;;4.30;4.00;;;-1.70;99.90;;;;;;5040838;28;20234;-74
2024/01/22 04:01:35;;;;;;;5.10;4.80;;;-1.70;99.90;;;;;;5043550;28;20203;-75
2024/01/22 04:04:02;;;;;;;4.70;4.40;;;-1.70;99.90;;;;;;5037321;28;20834;-75
2024/01/22 04:06:30;;;;;;;4.32;4.03;;;-1.70;99.90;;;;;;5036799;28;20633;-75
2024/01/22 04:08:57;;;;;;;4.55;4.25;;;-1.70;99.90;;;;;;5035768;28;20238;-76
2024/01/22 04:11:24;;;;;;;4.90;4.60;;;-1.60;99.90;;;;;;5040022;28;20214;-76
2024/01/22 04:13:51;;;;;;;4.53;4.22;;;-1.60;99.90;;;;;;5042687;28;20199;-76
2024/01/22 04:16:18;;;;;;;4.68;4.38;;;-1.70;99.90;;;;;;5041259;28;20230;-76
2024/01/22 04:18:45;;;;;;;4.78;4.47;;;-1.60;99.90;;;;;;5036924;28;20200;-75
2024/01/22 04:21:12;;;;;;;4.22;4.00;;;-1.70;99.90;;;;;;5039689;28;21796;-76
2024/01/22 04:23:41;;;;;;;4.85;4.55;;;-1.70;99.90;;;;;;5041010;28;20883;-76
2024/01/22 04:26:08;;;;;;;4.72;4.43;;;-1.80;99.90;;;;;;5040062;28;20311;-76
2024/01/22 04:28:35;;;;;;;4.30;4.10;;;-1.80;99.90;;;;;;5037228;28;20859;-75
2024/01/22 04:31:02;;;;;;;4.45;4.20;;;-1.70;99.90;;;;;;5041003;28;20233;-76
2024/01/22 04:33:29;;;;;;;4.60;4.25;;;-1.70;99.90;;;;;;5038183;28;20206;-76
2024/01/22 04:35:56;;;;;;;4.30;4.10;;;-1.70;99.90;;;;;;5038481;28;20219;-75
2024/01/22 04:38:23;;;;;;;4.68;4.40;;;-1.70;99.90;;;;;;5037875;28;20199;-76
2024/01/22 04:40:51;;;;;;;4.50;4.30;;;-1.80;99.90;;;;;;5039394;28;20227;-76
2024/01/22 04:43:21;;;;;;;4.53;4.32;;;-1.70;99.90;;;;;;5039099;28;20256;-76
2024/01/22 04:45:48;;;;;;;4.80;4.53;;;-1.70;99.90;;;;;;5041138;28;20223;-75
2024/01/22 04:48:15;;;;;;;5.30;5.00;;;-1.60;99.90;;;;;;5038116;28;20763;-75
2024/01/22 04:50:42;;;;;;;5.05;4.68;;;-1.60;99.90;;;;;;5039712;28;20720;-75
2024/01/22 04:53:09;;;;;;;4.80;4.50;;;-1.60;99.90;;;;;;5040534;28;20658;-76
2024/01/22 04:55:36;;;;;;;5.25;4.88;;;-1.60;99.90;;;;;;5041331;28;20218;-76
2024/01/22 04:58:05;;;;;;;5.07;4.68;;;-1.60;99.90;;;;;;5036155;28;20207;-75
2024/01/22 05:00:32;;;;;;;5.25;4.93;;;-1.60;99.90;;;;;;5031595;28;20226;-75
2024/01/22 05:03:04;;;;;;;5.70;5.30;;;-1.60;99.90;;;;;;5036234;28;20214;-75
2024/01/22 05:05:31;;;;;;;6.32;5.82;;;-1.60;99.90;;;;;;5040896;28;20829;-75
2024/01/22 05:07:58;;;;;;;8.07;7.47;;;-1.60;99.90;;;;;;5036525;28;20210;-76
2024/01/22 05:10:25;;;;;;;6.43;6.03;;;-1.60;99.90;;;;;;5033365;28;20717;-76
2024/01/22 05:12:53;;;;;;;6.45;5.97;;;-1.60;99.90;;;;;;5041842;28;20207;-75
2024/01/22 05:15:22;;;;;;;6.32;5.85;;;-1.60;99.90;;;;;;5039743;28;20226;-75
2024/01/22 05:17:49;;;;;;;5.75;5.35;;;-1.50;99.90;;;;;;5040697;28;20223;-75
2024/01/22 05:20:16;;;;;;;5.80;5.45;;;-1.50;99.90;;;;;;5037539;28;20720;-76
2024/01/22 05:22:44;;;;;;;5.70;5.30;;;-1.50;99.90;;;;;;5045541;28;20728;-75
2024/01/22 05:25:11;;;;;;;5.55;5.15;;;-1.50;99.90;;;;;;5038396;28;20288;-75
2024/01/22 05:27:38;;;;;;;5.18;4.88;;;-1.50;99.90;;;;;;5039810;28;20229;-74
2024/01/22 05:30:07;;;;;;;5.13;4.82;;;-1.50;99.90;;;;;;5040871;28;20215;-75
2024/01/22 05:32:36;;;;;;;5.47;5.18;;;-1.50;99.90;;;;;;5050207;28;20203;-75
2024/01/22 05:35:04;;;;;;;4.82;4.53;;;-1.50;99.90;;;;;;5039241;28;21373;-74
2024/01/22 05:37:31;;;;;;;5.30;5.00;;;-1.60;99.90;;;;;;5038415;28;20226;-76
2024/01/22 05:39:58;;;;;;;4.70;4.40;;;-1.60;99.90;;;;;;5033590;28;20264;-75
2024/01/22 05:42:25;;;;;;;5.15;4.85;;;-1.60;99.90;;;;;;5038946;28;20549;-75
2024/01/22 05:44:52;;;;;;;5.68;5.28;;;-1.60;99.90;;;;;;5038548;28;20239;-75
2024/01/22 05:47:19;;;;;;;5.05;4.65;;;-1.60;99.90;;;;;;5036776;28;20230;-75
2024/01/22 05:49:48;;;;;;;5.65;5.25;;;-1.60;99.90;;;;;;5034246;28;20223;-75
2024/01/22 05:52:15;;;;;;;5.53;5.13;;;-1.70;99.90;;;;;;5039927;28;20203;-75
2024/01/22 05:54:43;;;;;;;4.75;4.45;;;-1.70;99.90;;;;;;5036788;28;20215;-75
2024/01/22 05:57:10;;;;;;;5.28;4.90;;;-1.70;99.90;;;;;;5035673;28;20227;-75
2024/01/22 05:59:39;;;;;;;5.38;5.07;;;-1.70;99.90;;;;;;5036477;28;20215;-75
2024/01/22 06:02:07;;;;;;;5.60;5.30;;;-1.70;99.90;;;;;;5039693;28;20203;-76
2024/01/22 06:04:34;;;;;;;5.72;5.40;;;-1.80;99.90;;;;;;5037384;28;21007;-76
2024/01/22 06:07:02;;;;;;;5.95;5.47;;;-1.80;99.90;;;;;;5038030;28;20234;-75
2024/01/22 06:09:30;;;;;;;4.70;4.40;;;-1.90;99.90;;;;;;5036908;28;20309;-76
2024/01/22 06:11:57;;;;;;;5.05;4.65;;;-1.90;99.90;;;;;;5039631;28;20206;-75
2024/01/22 06:14:24;;;;;;;5.38;5.07;;;-1.90;99.90;;;;;;5039914;28;20233;-75
2024/01/22 06:16:52;;;;;;;4.95;4.65;;;-1.90;99.90;;;;;;5037643;28;20228;-75
2024/01/22 06:19:19;;;;;;;5.13;4.72;;;-1.90;99.90;;;;;;5036555;28;20337;-75
2024/01/22 06:21:46;;;;;;;5.35;4.97;;;-1.90;99.90;;;;;;5036105;28;20678;-76
2024/01/22 06:24:15;;;;;;;4.72;4.43;;;-1.90;99.90;;;;;;5038807;28;20220;-76
2024/01/22 06:26:43;;;;;;;4.88;4.57;;;-1.90;99.90;;;;;;5037147;28;20215;-75
2024/01/22 06:29:13;;;;;;;4.68;4.28;;;-1.90;99.90;;;;;;5035744;28;20601;-75
2024/01/22 06:31:41;;;;;;;5.10;4.80;;;-1.80;99.90;;;;;;5039572;28;20225;-76
2024/01/22 06:34:08;;;;;;;6.00;5.35;;;-1.80;99.90;;;;;;5035953;28;21985;-76
2024/01/22 06:36:35;;;;;;;5.32;5.03;;;-1.90;99.90;;;;;;5039272;28;20219;-76
2024/01/22 06:39:02;;;;;;;4.65;4.45;;;-1.80;99.90;;;;;;5032939;28;20226;-75
2024/01/22 06:41:32;;;;;;;4.65;4.35;;;-1.90;99.90;;;;;;5035946;28;20202;-75
2024/01/22 06:43:59;;;;;;;5.03;4.72;;;-1.80;99.90;;;;;;5036909;28;20308;-75
2024/01/22 06:46:26;;;;;;;4.70;4.40;;;-1.90;99.90;;;;;;5037048;28;20215;-76
2024/01/22 06:48:53;;;;;;;4.80;4.50;;;-1.90;99.90;;;;;;5038740;28;20245;-74
2024/01/22 06:51:22;;;;;;;5.03;4.72;;;-1.80;99.90;;;;;;5037334;28;20214;-76
2024/01/22 06:53:49;;;;;;;4.95;4.65;;;-1.80;99.90;;;;;;5036214;28;20210;-75
2024/01/22 06:56:16;;;;;;;4.75;4.38;;;-1.80;99.90;;;;;;5038517;28;20671;-74
2024/01/22 06:58:45;;;;;;;4.97;4.70;;;-1.80;99.90;;;;;;5037940;28;20916;-75
2024/01/22 07:01:12;;;;;;;4.97;4.68;;;-1.80;99.90;;;;;;5038142;28;20215;-75
2024/01/22 07:03:39;;;;;;;5.00;4.70;;;-1.80;99.90;;;;;;5035604;28;20861;-75
2024/01/22 07:06:06;;;;;;;5.18;4.88;;;-1.80;99.90;;;;;;5036425;28;20219;-75
2024/01/22 07:08:33;;;;;;;4.45;4.20;;;-1.70;99.90;;;;;;5036643;28;20298;-77
2024/01/22 07:11:00;;;;;;;4.93;4.63;;;-1.70;99.90;;;;;;5036073;28;20207;-76
2024/01/22 07:13:28;;;;;;;5.20;4.80;;;-1.70;99.90;;;;;;5040087;28;20210;-76
2024/01/22 07:15:56;;;;;;;4.60;4.30;;;-1.70;99.90;;;;;;5038809;28;20313;-75
2024/01/22 07:18:23;;;;;;;4.63;4.32;;;-1.70;99.90;;;;;;5035150;28;20194;-77
2024/01/22 07:20:52;;;;;;;4.57;4.38;;;-1.60;99.90;;;;;;5037791;28;20230;-75
2024/01/22 07:23:20;;;;;;;4.88;4.57;;;-1.60;99.90;;;;;;5037071;28;20203;-76
2024/01/22 07:25:48;;;;;;;4.20;4.00;;;-1.60;99.90;;;;;;5040122;28;20272;-76
2024/01/22 07:28:15;;;;;;;4.35;4.13;;;-1.50;99.90;;;;;;5036119;28;20738;-76
2024/01/22 07:30:42;;;;;;;4.70;4.40;;;-1.40;99.90;;;;;;5033821;28;20231;-75
2024/01/22 07:33:11;;;;;;;5.03;4.72;;;-1.40;99.90;;;;;;5038427;28;20210;-76
2024/01/22 07:35:38;;;;;;;5.03;4.63;;;-1.30;99.90;;;;;;5037635;28;20787;-76
2024/01/22 07:38:06;;;;;;;5.15;4.85;;;-1.20;99.90;;;;;;5037301;28;20213;-76
2024/01/22 07:40:33;;;;;;;5.05;4.75;;;-1.20;99.90;;;;;;5033796;28;20211;-75
2024/01/22 07:43:00;;;;;;;3.90;3.70;;;-1.10;99.90;;;;;;5035167;28;20187;-76
2024/01/22 07:45:27;;;;;;;5.22;4.82;;;-1.10;99.90;;;;;;5035884;28;21643;-76
2024/01/22 07:47:54;;;;;;;5.05;4.75;;;-1.10;99.90;;;;;;5037166;28;20919;-75
2024/01/22 07:50:23;;;;;;;6.05;5.55;;;-1.20;99.90;;;;;;5033306;28;20227;-77
2024/01/22 07:52:50;;;;;;;6.25;5.75;;;-1.30;99.90;;;;;;5036984;28;20285;-76
2024/01/22 07:55:18;;;;;;;6.45;5.85;;;-1.30;99.90;;;;;;5037756;28;20643;-76
2024/01/22 07:57:46;;;;;;;6.57;5.97;;;-1.20;99.90;;;;;;5034927;28;20300;-76
2024/01/22 08:00:14;;;;;;;5.80;5.30;;;-1.20;99.90;;;;;;5035491;28;20246;-76
2024/01/22 08:02:41;;;;;;;7.32;6.72;;;-1.10;99.90;;;;;;5037967;28;20218;-75
2024/01/22 08:05:12;;;;;;;6.10;5.60;;;-0.90;99.90;;;;;;5035749;28;20237;-75
2024/01/22 08:07:41;;;;;;;5.95;5.43;;;-0.90;99.90;;;;;;5032037;28;20219;-76
2024/01/22 08:10:09;;;;;;;5.40;5.05;;;-0.80;99.90;;;;;;5036686;28;20223;-76
2024/01/22 08:12:36;;;;;;;5.88;5.35;;;-0.70;99.90;;;;;;5037587;28;20219;-76
2024/01/22 08:15:03;;;;;;;5.75;5.35;;;-0.50;99.90;;;;;;5034546;28;20215;-76
2024/01/22 08:17:30;;;;;;;5.40;5.00;;;-0.40;99.90;;;;;;5035971;28;20226;-76
2024/01/22 08:19:57;;;;;;;5.57;5.07;;;0.00;99.90;;;;;;5033321;28;20760;-76
2024/01/22 08:22:25;;;;;;;5.85;5.45;;;0.70;99.90;;;;;;5037112;28;20204;-76
2024/01/22 08:24:53;;;;;;;5.90;5.40;;;1.30;99.90;;;;;;5036415;28;20646;-75
2024/01/22 08:27:20;;;;;;;5.80;5.40;;;1.80;99.90;;;;;;5034139;28;20234;-76
2024/01/22 08:29:47;;;;;;;5.65;5.20;;;2.40;99.90;;;;;;5037418;28;21506;-77
2024/01/22 08:32:14;;;;;;;5.55;5.15;;;2.60;99.90;;;;;;5037093;28;20214;-76
2024/01/22 08:34:41;;;;;;;5.43;5.03;;;2.90;99.90;;;;;;5037436;28;20231;-76
2024/01/22 08:37:08;;;;;;;5.80;5.30;;;3.50;99.90;;;;;;5037306;28;20773;-76
2024/01/22 08:39:35;;;;;;;5.35;4.85;;;4.00;99.90;;;;;;5038000;28;20227;-77
2024/01/22 08:42:04;;;;;;;5.28;4.88;;;4.30;99.90;;;;;;5038561;28;20207;-76
2024/01/22 08:44:32;;;;;;;5.78;5.30;;;4.60;99.90;;;;;;5037056;28;20226;-77
2024/01/22 08:46:59;;;;;;;6.05;5.55;;;4.70;99.90;;;;;;5038330;28;20223;-76
2024/01/22 08:49:26;;;;;;;5.88;5.47;;;4.50;99.90;;;;;;5043137;28;20225;-79
2024/01/22 08:51:53;;;;;;;6.85;6.25;;;4.50;99.90;;;;;;5055204;28;20214;-77
2024/01/22 08:54:20;;;;;;;6.18;5.57;;;4.60;99.90;;;;;;5056724;28;20233;-77
2024/01/22 08:56:47;;;;;;;6.43;5.82;;;4.80;99.90;;;;;;5052584;28;20225;-77
2024/01/22 08:59:15;;;;;;;6.95;6.35;;;5.00;99.90;;;;;;5057499;28;20265;-78
2024/01/22 09:01:43;;;;;;;6.65;6.00;;;5.20;99.90;;;;;;5057979;28;20436;-79
2024/01/22 09:04:10;;;;;;;6.78;6.07;;;5.40;99.90;;;;;;5057160;28;20314;-77
2024/01/22 09:06:38;;;;;;;6.55;5.95;;;5.60;99.90;;;;;;5052127;28;20305;-77
2024/01/22 09:09:07;;;;;;;6.63;6.03;;;5.60;99.90;;;;;;5052435;28;20252;-76
2024/01/22 09:11:34;;;;;;;5.90;5.30;;;5.40;99.90;;;;;;5054433;28;20222;-77
2024/01/22 09:14:01;;;;;;;6.60;6.10;;;5.00;99.90;;;;;;5056168;28;20321;-77
2024/01/22 09:16:29;;;;;;;6.03;5.35;;;4.90;99.90;;;;;;5055756;28;20313;-75
2024/01/22 09:18:57;;;;;;;5.30;4.90;;;4.90;99.90;;;;;;5051664;28;20730;-77
2024/01/22 09:21:25;;;;;;;5.65;5.15;;;4.90;99.90;;;;;;5056375;28;20210;-75
2024/01/22 09:23:52;;;;;;;5.93;5.43;;;4.70;99.90;;;;;;5054699;28;20440;-76
2024/01/22 09:26:19;;;;;;;6.70;6.00;;;4.50;99.90;;;;;;5053473;28;20288;-77
2024/01/22 09:28:46;;;;;;;6.63;5.93;;;4.10;99.90;;;;;;5052612;28;20280;-76
2024/01/22 09:31:12;;;;;;;5.57;5.18;;;3.90;99.90;;;;;;5052978;28;20338;-77
2024/01/22 09:33:41;;;;;;;5.70;5.20;;;3.80;99.90;;;;;;5054038;28;20226;-76
2024/01/22 09:36:08;;;;;;;6.38;5.88;;;3.80;99.90;;;;;;5054614;28;20808;-76
2024/01/22 09:38:35;;;;;;;6.35;5.72;;;3.70;99.90;;;;;;5053408;28;20218;-75
2024/01/22 09:41:02;;;;;;;6.18;5.68;;;3.60;99.90;;;;;;5055110;28;20973;-76
2024/01/22 09:43:30;;;;;;;6.30;5.75;;;3.80;99.90;;;;;;5055916;28;20198;-76
2024/01/22 09:45:57;;;;;;;5.82;5.32;;;4.00;99.90;;;;;;5050505;28;20352;-76
2024/01/22 09:48:25;;;;;;;6.07;5.57;;;3.80;99.90;;;;;;5052326;28;20292;-76
2024/01/22 09:50:54;;;;;;;6.30;5.63;;;3.40;99.90;;;;;;5051726;28;20237;-76
2024/01/22 09:53:22;;;;;;;6.20;5.70;;;2.90;99.90;;;;;;5056880;28;20194;-77
2024/01/22 09:55:51;;;;;;;6.50;5.35;;;2.70;99.90;;;;;;5052918;28;20224;-75
2024/01/22 09:58:22;;;;;;;6.35;5.85;;;2.90;99.90;;;;;;5055545;28;20238;-77
2024/01/22 10:00:49;;;;;;;6.18;5.65;;;3.30;99.90;;;;;;5053638;28;20245;-77
2024/01/22 10:03:18;;;;;;;5.82;5.32;;;3.50;99.90;;;;;;5055243;28;20704;-78
2024/01/22 10:05:47;;;;;;;6.10;5.60;;;3.70;99.90;;;;;;5051963;28;20222;-77
2024/01/22 10:08:16;;;;;;;6.18;5.57;;;3.90;99.90;;;;;;5052743;28;20371;-77
2024/01/22 10:10:43;;;;;;;7.78;5.80;;;3.90;99.90;;;;;;5052576;28;20287;-77
2024/01/22 10:13:10;;;;;;;5.88;5.38;;;3.90;99.90;;;;;;5053233;28;20348;-77
2024/01/22 10:15:38;;;;;;;5.25;4.85;;;3.80;99.90;;;;;;5052026;28;20336;-76
2024/01/22 10:18:08;;;;;;;5.30;4.90;;;3.80;99.90;;;;;;5055671;28;20214;-75
2024/01/22 10:20:35;;;;;;;5.10;4.60;;;3.80;99.90;;;;;;5048758;28;20221;-76
2024/01/22 10:23:02;;;;;;;5.82;5.32;;;3.80;99.90;;;;;;5051932;28;20275;-76
2024/01/22 10:25:31;;;;;;;5.50;5.10;;;4.10;99.90;;;;;;5056128;28;20233;-76
2024/01/22 10:28:12;;;;;;;7.63;6.25;;;4.30;99.90;;;;;;5053846;28;21584;-76
2024/01/22 10:30:40;;;;;;;7.05;5.78;;;4.50;99.90;;;;;;5052770;28;20324;-74
2024/01/22 10:33:12;;;;;;;8.55;6.25;;;4.70;99.90;;;;;;5055081;28;20199;-76
2024/01/22 10:35:39;;;;;;;6.63;6.00;;;4.90;99.90;;;;;;5051353;28;20242;-76
2024/01/22 10:38:07;;;;;;;8.98;6.35;;;5.40;99.90;;;;;;5050455;28;20301;-76
2024/01/22 10:40:36;;;;;;;7.72;6.20;;;5.70;99.90;;;;;;5055109;28;20229;-77
2024/01/22 10:43:19;;;;;;;7.80;6.20;;;5.90;99.90;;;;;;5057994;28;20201;-76
2024/01/22 10:45:47;;;;;;;6.78;5.57;;;6.00;99.90;;;;;;5054239;28;20295;-76
2024/01/22 10:48:17;;;;;;;6.80;6.25;;;6.00;99.90;;;;;;5055751;28;20305;-77
2024/01/22 10:50:45;;;;;;;8.48;5.85;;;6.00;99.90;;;;;;5057886;28;20257;-77
2024/01/22 10:53:13;;;;;;;6.28;5.68;;;5.70;99.90;;;;;;5054222;28;20210;-76
2024/01/22 10:55:44;;;;;;;6.45;5.40;;;5.60;99.90;;;;;;5051767;28;20309;-76
2024/01/22 10:58:19;;;;;;;6.22;5.63;;;5.30;99.90;;;;;;5051905;28;20213;-76
2024/01/22 11:00:48;;;;;;;5.90;5.13;;;5.20;99.90;;;;;;5053220;28;20725;-75
2024/01/22 11:03:18;;;;;;;6.65;5.53;;;5.20;99.90;;;;;;5053631;28;20986;-75
2024/01/22 11:05:48;;;;;;;6.00;5.40;;;5.40;99.90;;;;;;5056790;28;20237;-75
2024/01/22 11:08:18;;;;;;;6.57;5.45;;;5.50;99.90;;;;;;5050929;28;20201;-74
2024/01/22 11:10:48;;;;;;;6.93;5.82;;;5.40;99.90;;;;;;5052127;28;21090;-75
2024/01/22 11:13:16;;;;;;;6.32;5.72;;;5.30;99.90;;;;;;5055791;28;20205;-76
2024/01/22 11:15:43;;;;;;;6.85;5.32;;;5.20;99.90;;;;;;5051701;28;20214;-75
2024/01/22 11:18:11;;;;;;;7.45;5.80;;;5.10;99.90;;;;;;5055151;28;20749;-76
2024/01/22 11:20:38;;;;;;;7.38;6.28;;;4.90;99.90;;;;;;5050905;28;20602;-75
2024/01/22 11:23:09;;;;;;;7.97;6.28;;;4.80;99.90;;;;;;5051242;28;20291;-75
2024/01/22 11:25:37;;;;;;;7.07;6.38;;;4.60;99.90;;;;;;5049872;28;20639;-76
2024/01/22 11:28:09;;;;;;;7.50;5.88;;;4.50;99.90;;;;;;5054081;28;20202;-76
2024/01/22 11:30:38;;;;;;;6.15;5.55;;;4.60;99.90;;;;;;5051832;28;20226;-75
2024/01/22 11:33:29;;;;;;;5.80;5.30;;;4.60;99.90;;;;;;5052653;28;20296;-76
2024/01/22 11:35:56;;;;;;;6.68;6.07;;;4.60;99.90;;;;;;5052806;28;20226;-75
2024/01/22 11:38:51;;;;;;;7.05;6.35;;;4.70;99.90;;;;;;5053769;28;20248;-76
2024/01/22 11:41:29;;;;;;;8.00;6.05;;;5.00;99.90;;;;;;5051951;28;20843;-76
2024/01/22 11:43:58;;;;;;;7.20;6.50;;;5.10;99.90;;;;;;5052796;28;20967;-75
2024/01/22 11:46:26;;;;;;;7.10;6.15;;;5.20;99.90;;;;;;5052210;28;20225;-75
2024/01/22 11:48:54;;;;;;;5.90;5.40;;;5.30;99.90;;;;;;5050794;28;20202;-75
2024/01/22 11:51:26;;;;;;;6.13;5.63;;;5.20;99.90;;;;;;5055160;28;20217;-76
2024/01/22 11:53:54;;;;;;;6.75;6.00;;;5.40;99.90;;;;;;5051563;28;20284;-76
2024/01/22 11:56:22;;;;;;;5.35;4.85;;;5.40;99.90;;;;;;5056138;28;20237;-74
2024/01/22 11:58:52;;;;;;;7.22;5.60;;;5.30;99.90;;;;;;5055268;28;20210;-75
2024/01/22 12:01:21;;;;;;;7.95;6.22;;;5.40;99.90;;;;;;5059825;28;20669;-76
2024/01/22 12:03:48;;;;;;;7.03;6.28;;;5.70;99.90;;;;;;5053029;28;20205;-76
2024/01/22 12:06:15;;;;;;;5.80;5.30;;;5.70;99.90;;;;;;5058872;28;20876;-75
2024/01/22 12:08:42;;;;;;;6.75;5.60;;;5.60;99.90;;;;;;5055578;28;20286;-75
2024/01/22 12:11:14;;;;;;;10.52;6.53;;;5.50;99.90;;;;;;5060701;28;20249;-75
2024/01/22 12:13:43;;;;;;;5.82;5.30;;;5.60;99.90;;;;;;5057332;28;20199;-76
2024/01/22 12:16:14;;;;;;;12.10;5.85;;;5.60;99.90;;;;;;5037787;28;20229;-75
2024/01/22 12:18:43;;;;;;;12.68;6.78;;;5.60;99.90;;;;;;5035459;28;20966;-75
2024/01/22 12:21:10;;;;;;;6.22;5.65;;;5.70;99.90;;;;;;5053296;28;20222;-74
2024/01/22 12:23:37;;;;;;;7.00;5.63;;;5.80;99.90;;;;;;5050420;28;20213;-75
2024/01/22 12:26:11;;;;;;;7.18;6.32;;;5.80;99.90;;;;;;5055418;28;20217;-74
2024/01/22 12:28:39;;;;;;;6.22;5.28;;;5.80;99.90;;;;;;5054578;28;20205;-75
2024/01/22 12:31:06;;;;;;;6.28;5.50;;;5.90;99.90;;;;;;5055532;28;20256;-75
2024/01/22 12:33:34;;;;;;;6.35;5.75;;;6.00;99.90;;;;;;5051355;28;20282;-74
2024/01/22 12:36:10;;;;;;;6.15;5.57;;;6.00;99.90;;;;;;5057859;28;20309;-75
2024/01/22 12:38:47;;;;;;;6.78;6.18;;;5.90;99.90;;;;;;5055599;28;20294;-75
2024/01/22 12:41:15;;;;;;;6.07;5.57;;;5.90;99.90;;;;;;5056857;28;20249;-75
2024/01/22 12:43:42;;;;;;;7.55;6.05;;;5.90;99.90;;;;;;5054591;28;20187;-76
2024/01/22 12:46:10;;;;;;;7.68;6.10;;;6.00;99.90;;;;;;5056116;28;20258;-75
2024/01/22 12:48:37;;;;;;;6.50;5.90;;;6.00;99.90;;;;;;5056420;28;20720;-75
2024/01/22 12:51:05;;;;;;;5.97;5.47;;;5.90;99.90;;;;;;5054660;28;20260;-75
2024/01/22 12:53:33;;;;;;;5.18;4.78;;;5.60;99.90;;;;;;5052601;28;20688;-75